Time;durP1;ratioP1;P1;durP2;ratioP2;P2;SDS_P1;SDS_P2;PMS_P1;PMS_P2;Temp;Humidity;BMP_temperature;BMP_pressure;BME280_temperature;BME280_humidity;BME280_pressure;Samples;Min_cycle;Max_cycle;Signal;HPM_P1;HPM_P2
2023/05/17 05:00:49;;;;;;;4.43;1.50;;;9.70;97.20;;;;;;1720653;28;20766;-72
2023/05/17 05:01:40;;;;;;;3.67;1.50;;;9.70;97.20;;;;;;1721085;28;20673;-71
2023/05/17 05:02:32;;;;;;;3.87;2.00;;;9.70;97.20;;;;;;1721054;28;20724;-70
2023/05/17 05:03:22;;;;;;;2.60;1.70;;;9.70;97.20;;;;;;1720858;28;20212;-70
2023/05/17 05:04:14;;;;;;;3.77;1.83;;;9.70;97.20;;;;;;1721287;28;20284;-71
2023/05/17 05:05:06;;;;;;;2.78;1.40;;;9.70;97.20;;;;;;1721023;28;20205;-72
2023/05/17 05:05:57;;;;;;;4.80;2.10;;;9.70;97.20;;;;;;1721092;28;20193;-70
2023/05/17 05:06:48;;;;;;;4.15;1.70;;;9.70;97.20;;;;;;1721106;28;20209;-70
2023/05/17 05:07:40;;;;;;;4.63;1.75;;;9.70;97.20;;;;;;1721130;28;20276;-72
2023/05/17 05:08:32;;;;;;;3.17;1.83;;;9.70;97.20;;;;;;1721168;28;20201;-71
2023/05/17 05:09:24;;;;;;;2.33;1.52;;;9.70;97.20;;;;;;1721154;28;20209;-71
2023/05/17 05:10:14;;;;;;;2.65;2.08;;;9.70;97.20;;;;;;1720903;28;20209;-70
2023/05/17 05:11:06;;;;;;;3.57;2.10;;;9.70;97.20;;;;;;1715495;28;20200;-72
2023/05/17 05:11:57;;;;;;;4.13;2.28;;;9.70;97.20;;;;;;1714363;28;20468;-70
2023/05/17 05:12:49;;;;;;;3.17;2.00;;;9.80;97.20;;;;;;1713624;28;20201;-71
2023/05/17 05:13:40;;;;;;;4.50;1.95;;;9.80;97.20;;;;;;1713824;28;20210;-72
2023/05/17 05:14:32;;;;;;;3.35;2.25;;;9.80;97.20;;;;;;1714397;28;20615;-70
2023/05/17 05:15:23;;;;;;;4.65;2.13;;;9.80;97.20;;;;;;1714292;28;20209;-70
2023/05/17 05:16:16;;;;;;;3.60;2.10;;;9.80;97.20;;;;;;1714356;28;20201;-73
2023/05/17 05:17:06;;;;;;;3.92;2.03;;;9.90;97.20;;;;;;1715646;28;20714;-72
2023/05/17 05:17:58;;;;;;;4.17;2.03;;;9.90;97.20;;;;;;1719650;28;20623;-71
2023/05/17 05:18:49;;;;;;;2.80;1.85;;;9.90;97.20;;;;;;1714309;28;20445;-71
2023/05/17 05:19:41;;;;;;;5.57;2.23;;;9.90;97.20;;;;;;1714242;28;20225;-71
2023/05/17 05:20:31;;;;;;;4.90;1.85;;;9.90;97.20;;;;;;1714209;28;20237;-74
2023/05/17 05:21:23;;;;;;;3.77;2.00;;;9.90;97.20;;;;;;1717826;28;20205;-72
2023/05/17 05:22:14;;;;;;;3.28;1.77;;;10.00;97.20;;;;;;1720950;28;20209;-72
2023/05/17 05:23:05;;;;;;;4.30;2.07;;;10.00;97.20;;;;;;1720822;28;20197;-72
2023/05/17 05:23:56;;;;;;;4.28;2.00;;;10.00;97.20;;;;;;1720575;28;20240;-72
2023/05/17 05:24:48;;;;;;;6.83;1.90;;;10.00;97.20;;;;;;1720922;28;20209;-71
2023/05/17 05:25:39;;;;;;;3.90;2.17;;;10.10;97.20;;;;;;1720913;28;20201;-71
2023/05/17 05:26:30;;;;;;;3.70;1.93;;;10.10;97.20;;;;;;1720972;28;20251;-72
2023/05/17 05:27:21;;;;;;;3.67;1.98;;;10.10;97.20;;;;;;1720955;28;20209;-71
2023/05/17 05:28:13;;;;;;;2.13;1.70;;;10.10;97.20;;;;;;1720953;28;20205;-71
2023/05/17 05:29:04;;;;;;;6.95;2.47;;;10.20;97.20;;;;;;1720960;28;20691;-72
2023/05/17 05:29:56;;;;;;;2.55;1.90;;;10.20;97.20;;;;;;1720882;28;20201;-72
2023/05/17 05:30:46;;;;;;;2.53;1.58;;;10.20;97.20;;;;;;1720527;28;20253;-72
2023/05/17 05:31:39;;;;;;;4.40;2.00;;;10.20;97.20;;;;;;1719813;28;20201;-72
2023/05/17 05:32:30;;;;;;;2.97;1.60;;;10.30;97.20;;;;;;1720208;28;20631;-72
2023/05/17 05:33:22;;;;;;;4.53;2.07;;;10.30;97.20;;;;;;1719785;28;20560;-73
2023/05/17 05:34:12;;;;;;;3.22;2.20;;;10.30;97.20;;;;;;1720144;28;20216;-72
2023/05/17 05:35:05;;;;;;;2.87;1.67;;;10.30;97.20;;;;;;1720338;28;20197;-72
2023/05/17 05:35:56;;;;;;;4.18;1.65;;;10.30;97.20;;;;;;1720494;28;20201;-72
2023/05/17 05:36:47;;;;;;;4.37;2.20;;;10.30;97.20;;;;;;1720762;28;20260;-72
2023/05/17 05:37:38;;;;;;;8.00;1.90;;;10.40;97.20;;;;;;1720694;28;20582;-73
2023/05/17 05:38:30;;;;;;;6.50;2.03;;;10.40;97.20;;;;;;1720646;28;20200;-72
2023/05/17 05:39:20;;;;;;;3.50;2.08;;;10.40;97.20;;;;;;1720387;28;20563;-73
2023/05/17 05:40:13;;;;;;;3.50;2.07;;;10.40;97.20;;;;;;1720003;28;20573;-71
2023/05/17 05:41:04;;;;;;;4.43;2.10;;;10.40;97.20;;;;;;1720298;28;20209;-73
2023/05/17 05:41:56;;;;;;;3.03;1.70;;;10.50;97.20;;;;;;1720301;28;20200;-71
2023/05/17 05:42:47;;;;;;;2.15;1.70;;;10.50;97.20;;;;;;1720615;28;20232;-72
2023/05/17 05:43:38;;;;;;;4.57;1.97;;;10.50;97.20;;;;;;1720282;28;20197;-72
2023/05/17 05:44:29;;;;;;;3.90;1.55;;;10.50;97.20;;;;;;1720585;28;20879;-72
2023/05/17 05:45:21;;;;;;;2.87;2.07;;;10.50;97.20;;;;;;1720590;28;20196;-71
2023/05/17 05:46:12;;;;;;;6.38;1.95;;;10.60;97.20;;;;;;1720541;28;20444;-72
2023/05/17 05:47:05;;;;;;;4.90;2.03;;;10.60;97.20;;;;;;1720682;28;20205;-71
2023/05/17 05:47:56;;;;;;;4.35;2.35;;;10.60;97.20;;;;;;1720782;28;20657;-71
2023/05/17 05:48:48;;;;;;;3.60;1.80;;;10.70;97.20;;;;;;1720780;28;20661;-72
2023/05/17 05:49:38;;;;;;;4.40;2.15;;;10.70;97.20;;;;;;1720757;28;20263;-73
2023/05/17 05:50:30;;;;;;;4.50;2.13;;;10.70;97.20;;;;;;1720726;28;20201;-72
2023/05/17 05:51:21;;;;;;;4.25;1.83;;;10.70;97.20;;;;;;1720580;28;20200;-72
2023/05/17 05:52:12;;;;;;;3.87;1.97;;;10.70;97.20;;;;;;1720703;28;20207;-72
2023/05/17 05:53:03;;;;;;;3.55;1.95;;;10.80;97.20;;;;;;1720746;28;20236;-72
2023/05/17 05:53:55;;;;;;;7.53;2.20;;;10.80;97.20;;;;;;1720436;28;20208;-71
2023/05/17 05:54:46;;;;;;;7.55;2.20;;;10.80;97.20;;;;;;1720748;28;20205;-72
2023/05/17 05:55:41;;;;;;;5.87;2.70;;;10.90;97.20;;;;;;1720632;28;20216;-71
2023/05/17 05:56:31;;;;;;;4.95;2.25;;;10.90;97.20;;;;;;1720932;28;20216;-72
2023/05/17 05:57:23;;;;;;;3.63;2.27;;;10.90;97.20;;;;;;1720806;28;20207;-72
2023/05/17 05:58:14;;;;;;;3.65;2.10;;;11.00;97.20;;;;;;1720675;28;20260;-72
2023/05/17 05:59:06;;;;;;;5.82;2.10;;;11.00;97.20;;;;;;1720858;28;20215;-72
2023/05/17 05:59:57;;;;;;;4.80;2.30;;;11.00;97.20;;;;;;1720683;28;20221;-73
2023/05/17 06:00:48;;;;;;;3.70;2.10;;;11.10;97.20;;;;;;1720661;28;20283;-72
2023/05/17 06:01:40;;;;;;;4.57;2.42;;;11.10;97.20;;;;;;1720371;28;20220;-72
2023/05/17 06:02:33;;;;;;;7.25;2.33;;;11.10;97.20;;;;;;1720765;28;20284;-72
2023/05/17 06:03:24;;;;;;;9.77;2.10;;;11.20;97.20;;;;;;1720499;28;20291;-72
2023/05/17 06:04:16;;;;;;;5.63;2.00;;;11.20;97.20;;;;;;1720716;28;20213;-73
2023/05/17 06:05:08;;;;;;;4.85;2.25;;;11.20;97.20;;;;;;1720630;28;20822;-72
2023/05/17 06:05:59;;;;;;;4.50;2.53;;;11.30;97.20;;;;;;1720649;28;20375;-72
2023/05/17 06:06:50;;;;;;;5.88;2.08;;;11.30;97.20;;;;;;1720662;28;20201;-72
2023/05/17 06:07:42;;;;;;;5.17;2.97;;;11.40;97.20;;;;;;1720715;28;20197;-71
2023/05/17 06:08:32;;;;;;;5.53;1.73;;;11.40;97.20;;;;;;1720653;28;20205;-72
2023/05/17 06:09:24;;;;;;;2.67;1.80;;;11.40;97.20;;;;;;1720773;28;20208;-72
2023/05/17 06:10:15;;;;;;;3.25;2.30;;;11.40;97.20;;;;;;1720548;28;20197;-72
2023/05/17 06:11:07;;;;;;;3.43;1.67;;;11.50;97.20;;;;;;1720493;28;20207;-72
2023/05/17 06:11:57;;;;;;;4.80;2.05;;;11.50;97.20;;;;;;1720627;28;20467;-73
2023/05/17 06:12:49;;;;;;;3.33;2.03;;;11.50;97.20;;;;;;1720702;28;20207;-71
2023/05/17 06:13:40;;;;;;;4.00;2.25;;;11.60;97.20;;;;;;1720397;28;20201;-71
2023/05/17 06:14:31;;;;;;;7.67;3.23;;;11.60;97.20;;;;;;1720670;28;20209;-71
2023/05/17 06:15:22;;;;;;;6.47;2.30;;;11.60;97.20;;;;;;1720651;28;20677;-71
2023/05/17 06:16:14;;;;;;;4.00;1.90;;;11.60;97.20;;;;;;1720603;28;20546;-71
2023/05/17 06:17:05;;;;;;;3.65;2.10;;;11.70;97.20;;;;;;1720681;28;20206;-71
2023/05/17 06:17:58;;;;;;;4.68;2.58;;;11.70;97.20;;;;;;1720596;28;20200;-71
2023/05/17 06:18:49;;;;;;;5.68;2.55;;;11.70;97.20;;;;;;1720656;28;20212;-71
2023/05/17 06:19:41;;;;;;;3.03;1.60;;;11.80;97.20;;;;;;1720716;28;20196;-71
2023/05/17 06:20:31;;;;;;;5.88;2.45;;;11.80;97.20;;;;;;1720511;28;20233;-73
2023/05/17 06:21:24;;;;;;;3.33;2.00;;;11.80;97.20;;;;;;1720396;28;20306;-71
2023/05/17 06:22:15;;;;;;;5.63;2.50;;;11.80;97.20;;;;;;1720605;28;20205;-71
2023/05/17 06:23:06;;;;;;;3.10;2.30;;;11.80;97.20;;;;;;1720483;28;20197;-71
2023/05/17 06:23:57;;;;;;;2.70;1.80;;;11.80;97.20;;;;;;1720152;28;20208;-71
2023/05/17 06:24:49;;;;;;;3.33;2.40;;;11.80;97.20;;;;;;1720556;28;20203;-72
2023/05/17 06:25:39;;;;;;;6.95;2.78;;;11.80;97.20;;;;;;1720652;28;20448;-73
2023/05/17 06:26:31;;;;;;;8.03;3.43;;;11.80;97.20;;;;;;1720656;28;20207;-72
2023/05/17 06:27:22;;;;;;;4.25;2.05;;;11.80;97.20;;;;;;1720592;28;20236;-71
2023/05/17 06:28:13;;;;;;;3.80;2.27;;;11.80;97.20;;;;;;1720644;28;20212;-72
2023/05/17 06:29:04;;;;;;;6.50;2.65;;;11.80;97.20;;;;;;1720743;28;20579;-72
2023/05/17 06:29:56;;;;;;;4.80;2.47;;;11.80;97.20;;;;;;1720650;28;20189;-72
2023/05/17 06:30:47;;;;;;;3.92;2.45;;;11.80;97.20;;;;;;1720450;28;20240;-72
2023/05/17 06:31:38;;;;;;;5.60;2.03;;;11.90;97.20;;;;;;1720450;28;20197;-71
2023/05/17 06:32:29;;;;;;;3.85;1.95;;;11.90;97.20;;;;;;1720763;28;20699;-72
2023/05/17 06:33:22;;;;;;;4.60;2.20;;;11.90;97.20;;;;;;1720350;28;20652;-73
2023/05/17 06:34:13;;;;;;;5.88;2.80;;;11.90;97.20;;;;;;1720688;28;20216;-72
2023/05/17 06:35:05;;;;;;;6.47;3.00;;;12.00;97.20;;;;;;1720583;28;20201;-71
2023/05/17 06:35:56;;;;;;;5.00;2.60;;;12.00;97.20;;;;;;1720707;28;20213;-73
2023/05/17 06:36:48;;;;;;;6.00;2.50;;;12.00;97.20;;;;;;1720630;28;20243;-72
2023/05/17 06:37:39;;;;;;;4.30;2.15;;;12.00;97.20;;;;;;1720595;28;20460;-72
2023/05/17 06:38:31;;;;;;;5.90;2.40;;;12.00;97.20;;;;;;1720510;28;20280;-71
2023/05/17 06:39:21;;;;;;;3.65;2.50;;;12.10;97.20;;;;;;1720606;28;20213;-71
2023/05/17 06:40:13;;;;;;;6.03;2.77;;;12.10;97.20;;;;;;1720592;28;20292;-73
2023/05/17 06:41:04;;;;;;;6.13;2.47;;;12.10;97.20;;;;;;1720465;28;20662;-73
2023/05/17 06:41:56;;;;;;;4.47;2.40;;;12.10;97.20;;;;;;1713887;28;20197;-72
2023/05/17 06:42:47;;;;;;;4.93;2.80;;;12.10;97.20;;;;;;1713849;28;20235;-72
2023/05/17 06:43:40;;;;;;;11.32;2.60;;;12.20;97.20;;;;;;1713528;28;20229;-72
2023/05/17 06:44:30;;;;;;;4.03;2.63;;;12.20;97.20;;;;;;1713879;28;20202;-72
2023/05/17 06:45:22;;;;;;;5.33;2.90;;;12.20;97.20;;;;;;1713752;28;20658;-72
2023/05/17 06:46:13;;;;;;;5.35;2.70;;;12.30;97.20;;;;;;1713860;28;20206;-71
2023/05/17 06:47:05;;;;;;;5.60;3.00;;;12.30;97.20;;;;;;1713874;28;20201;-71
2023/05/17 06:47:56;;;;;;;3.90;2.60;;;12.30;97.20;;;;;;1713845;28;20202;-72
2023/05/17 06:48:48;;;;;;;7.20;3.00;;;12.40;97.20;;;;;;1713910;28;20213;-72
2023/05/17 06:49:40;;;;;;;4.40;2.55;;;12.40;97.20;;;;;;1713870;28;20210;-72
2023/05/17 06:50:31;;;;;;;9.63;3.13;;;12.50;97.20;;;;;;1717576;28;20204;-73
2023/05/17 06:51:23;;;;;;;4.07;2.77;;;12.50;97.20;;;;;;1720620;28;20228;-72
2023/05/17 06:52:13;;;;;;;6.78;3.05;;;12.50;97.20;;;;;;1720555;28;20209;-73
2023/05/17 06:53:05;;;;;;;5.57;3.57;;;12.60;97.20;;;;;;1720535;28;20205;-73
2023/05/17 06:53:56;;;;;;;6.65;3.13;;;12.60;97.20;;;;;;1720202;28;20205;-72
2023/05/17 06:54:47;;;;;;;6.67;2.80;;;12.70;97.20;;;;;;1720580;28;20204;-74
2023/05/17 06:55:39;;;;;;;5.53;3.30;;;12.70;97.20;;;;;;1720454;28;20205;-73
2023/05/17 06:56:31;;;;;;;9.20;3.45;;;12.70;97.20;;;;;;1718764;28;20284;-75
2023/05/17 06:57:23;;;;;;;5.70;2.85;;;12.80;97.20;;;;;;1720096;28;20232;-74
2023/05/17 06:58:14;;;;;;;4.78;3.58;;;12.80;97.20;;;;;;1720409;28;20284;-74
2023/05/17 06:59:05;;;;;;;26.45;4.50;;;12.90;97.20;;;;;;1720224;28;20205;-74
2023/05/17 06:59:57;;;;;;;15.70;4.63;;;12.90;97.20;;;;;;1720482;28;20193;-73
2023/05/17 07:00:48;;;;;;;14.90;4.70;;;12.90;97.20;;;;;;1719932;28;20693;-72
2023/05/17 07:01:39;;;;;;;14.83;3.70;;;13.00;97.20;;;;;;1720485;28;20879;-73
2023/05/17 07:02:31;;;;;;;23.73;4.65;;;13.00;97.20;;;;;;1720486;28;20228;-73
2023/05/17 07:03:23;;;;;;;15.23;3.90;;;13.00;97.20;;;;;;1719546;28;20255;-73
2023/05/17 07:04:15;;;;;;;24.13;4.40;;;13.10;97.20;;;;;;1720133;28;20205;-73
2023/05/17 07:05:07;;;;;;;9.00;3.53;;;13.10;97.20;;;;;;1720250;28;20247;-73
2023/05/17 07:05:58;;;;;;;9.60;3.50;;;13.10;97.20;;;;;;1720529;28;20580;-73
2023/05/17 07:06:50;;;;;;;10.50;3.20;;;13.20;97.20;;;;;;1720508;28;20564;-73
2023/05/17 07:07:40;;;;;;;12.25;3.95;;;13.20;97.20;;;;;;1720429;28;20448;-74
2023/05/17 07:08:32;;;;;;;7.23;3.40;;;13.20;97.20;;;;;;1720528;28;20197;-73
2023/05/17 07:09:23;;;;;;;7.38;3.42;;;13.20;97.20;;;;;;1720525;28;20205;-73
2023/05/17 07:10:15;;;;;;;9.53;3.50;;;13.20;97.20;;;;;;1720081;28;20205;-73
2023/05/17 07:11:06;;;;;;;8.98;3.97;;;13.30;97.20;;;;;;1720267;28;20201;-74
2023/05/17 07:11:57;;;;;;;7.47;4.07;;;13.30;97.20;;;;;;1720533;28;20216;-73
2023/05/17 07:12:49;;;;;;;9.70;3.30;;;13.30;97.20;;;;;;1720257;28;20284;-72
2023/05/17 07:13:40;;;;;;;5.38;2.83;;;13.30;97.20;;;;;;1719650;28;20205;-72
2023/05/17 07:14:31;;;;;;;6.70;3.00;;;13.40;97.20;;;;;;1720802;28;20207;-73
2023/05/17 07:15:22;;;;;;;9.05;3.85;;;13.40;97.20;;;;;;1720314;28;20245;-73
2023/05/17 07:16:14;;;;;;;10.93;4.10;;;13.50;97.20;;;;;;1720201;28;20396;-73
2023/05/17 07:17:04;;;;;;;12.40;3.67;;;13.50;97.20;;;;;;1720268;28;20206;-74
2023/05/17 07:17:58;;;;;;;7.97;3.43;;;13.50;97.20;;;;;;1719974;28;20197;-73
2023/05/17 07:18:48;;;;;;;7.07;4.00;;;13.60;97.20;;;;;;1717713;28;20776;-74
2023/05/17 07:19:41;;;;;;;9.97;4.10;;;13.60;97.20;;;;;;1720397;28;20696;-74
2023/05/17 07:20:32;;;;;;;7.68;3.03;;;13.70;97.20;;;;;;1720252;28;20265;-74
2023/05/17 07:21:24;;;;;;;7.97;3.80;;;13.70;97.20;;;;;;1720324;28;20208;-73
2023/05/17 07:22:15;;;;;;;11.38;3.60;;;13.80;97.20;;;;;;1720012;28;20676;-74
2023/05/17 07:23:06;;;;;;;15.40;3.40;;;13.80;97.20;;;;;;1719948;28;20692;-74
2023/05/17 07:23:57;;;;;;;9.43;3.65;;;13.80;97.20;;;;;;1719729;28;20566;-73
2023/05/17 07:24:49;;;;;;;10.07;3.67;;;13.80;97.20;;;;;;1720357;28;20629;-73
2023/05/17 07:25:41;;;;;;;21.15;4.35;;;13.80;97.20;;;;;;1720455;28;20456;-73
2023/05/17 07:26:33;;;;;;;17.73;4.30;;;13.90;97.20;;;;;;1720179;28;20205;-74
2023/05/17 07:27:24;;;;;;;23.83;5.40;;;13.90;97.20;;;;;;1720330;28;20607;-74
2023/05/17 07:28:16;;;;;;;18.00;5.25;;;13.90;97.20;;;;;;1720015;28;20197;-74
2023/05/17 07:29:07;;;;;;;20.45;4.97;;;14.00;97.20;;;;;;1720362;28;20205;-74
2023/05/17 07:29:59;;;;;;;27.63;5.40;;;14.00;97.20;;;;;;1720350;28;20201;-76
2023/05/17 07:30:49;;;;;;;13.85;4.28;;;14.10;97.20;;;;;;1720270;28;20244;-74
2023/05/17 07:31:41;;;;;;;41.60;5.73;;;14.10;97.20;;;;;;1720387;28;20215;-74
2023/05/17 07:32:32;;;;;;;19.20;5.18;;;14.10;97.20;;;;;;1720378;28;20836;-75
2023/05/17 07:33:24;;;;;;;14.80;3.60;;;14.20;97.20;;;;;;1719333;28;20235;-75
2023/05/17 07:34:14;;;;;;;11.40;3.88;;;14.20;97.20;;;;;;1719897;28;20205;-74
2023/05/17 07:35:08;;;;;;;6.87;3.07;;;14.30;97.20;;;;;;1720178;28;20248;-73
2023/05/17 07:35:59;;;;;;;15.68;3.80;;;14.30;97.20;;;;;;1720390;28;20201;-74
2023/05/17 07:36:50;;;;;;;8.32;3.70;;;14.40;97.20;;;;;;1721519;28;20205;-74
2023/05/17 07:37:42;;;;;;;9.70;4.43;;;14.50;97.20;;;;;;1721649;28;20197;-73
2023/05/17 07:38:34;;;;;;;9.88;3.95;;;14.50;97.20;;;;;;1721436;28;20579;-73
2023/05/17 07:39:26;;;;;;;8.70;3.60;;;14.60;97.20;;;;;;1721416;28;20201;-73
2023/05/17 07:40:17;;;;;;;11.07;3.30;;;14.70;97.20;;;;;;1721187;28;20237;-73
2023/05/17 07:41:09;;;;;;;10.75;3.50;;;14.90;97.20;;;;;;1721460;28;20656;-72
2023/05/17 07:42:00;;;;;;;8.95;3.83;;;14.90;97.20;;;;;;1721610;28;20209;-72
2023/05/17 07:42:51;;;;;;;8.47;4.17;;;15.00;97.20;;;;;;1721860;28;20713;-73
2023/05/17 07:43:42;;;;;;;8.20;3.75;;;15.10;97.20;;;;;;1720484;28;20201;-74
2023/05/17 07:44:34;;;;;;;11.87;4.17;;;15.30;97.20;;;;;;1721563;28;20197;-72
2023/05/17 07:45:25;;;;;;;12.25;3.65;;;15.40;97.20;;;;;;1721293;28;20209;-72
2023/05/17 07:46:17;;;;;;;12.67;4.53;;;15.50;97.20;;;;;;1721188;28;20228;-72
2023/05/17 07:47:08;;;;;;;12.50;4.10;;;15.50;97.20;;;;;;1721496;28;20205;-72
2023/05/17 07:48:00;;;;;;;7.17;3.80;;;15.50;97.20;;;;;;1721535;28;20198;-72
2023/05/17 07:48:50;;;;;;;8.30;3.90;;;15.50;97.20;;;;;;1721563;28;20205;-73
2023/05/17 07:49:42;;;;;;;10.83;3.30;;;15.60;97.20;;;;;;1721523;28;20204;-73
2023/05/17 07:50:34;;;;;;;6.82;3.00;;;15.60;97.20;;;;;;1721487;28;20221;-72
2023/05/17 07:51:26;;;;;;;7.55;3.90;;;15.70;97.20;;;;;;1721254;28;20263;-74
2023/05/17 07:52:17;;;;;;;6.10;3.13;;;15.70;97.20;;;;;;1721004;28;20201;-73
2023/05/17 07:53:09;;;;;;;8.43;3.93;;;15.70;97.20;;;;;;1720948;28;20208;-73
2023/05/17 07:54:02;;;;;;;8.05;3.75;;;15.70;97.20;;;;;;1721029;28;20668;-74
2023/05/17 07:54:53;;;;;;;7.28;3.50;;;15.70;97.20;;;;;;1721491;28;20196;-73
2023/05/17 07:55:44;;;;;;;8.57;4.00;;;15.80;97.20;;;;;;1721578;28;20692;-72
2023/05/17 07:56:36;;;;;;;10.63;3.90;;;15.80;97.20;;;;;;1721595;28;20569;-73
2023/05/17 07:57:26;;;;;;;12.52;4.22;;;15.80;97.20;;;;;;1721183;28;20201;-72
2023/05/17 07:58:18;;;;;;;14.43;4.50;;;15.90;97.20;;;;;;1721221;28;20205;-73
2023/05/17 07:59:09;;;;;;;8.57;3.60;;;15.90;97.20;;;;;;1721494;28;20205;-73
2023/05/17 08:00:00;;;;;;;5.90;3.47;;;16.00;97.20;;;;;;1721496;28;20211;-73
2023/05/17 08:00:51;;;;;;;8.38;3.90;;;16.20;97.20;;;;;;1721257;28;20226;-72
2023/05/17 08:01:43;;;;;;;7.07;3.70;;;16.30;97.20;;;;;;1721587;28;20211;-73
2023/05/17 08:02:34;;;;;;;5.43;3.65;;;16.40;97.20;;;;;;1721483;28;20566;-73
2023/05/17 08:03:27;;;;;;;15.83;3.93;;;16.50;97.20;;;;;;1718194;28;20224;-73
2023/05/17 08:04:19;;;;;;;10.00;3.92;;;16.50;97.20;;;;;;1721170;28;20449;-73
2023/05/17 08:05:09;;;;;;;10.65;3.97;;;16.60;97.20;;;;;;1721542;28;20209;-74
2023/05/17 08:06:02;;;;;;;13.23;4.43;;;16.60;97.20;;;;;;1721852;28;20232;-73
2023/05/17 08:06:54;;;;;;;9.50;3.63;;;16.60;97.20;;;;;;1721501;28;20216;-73
2023/05/17 08:07:46;;;;;;;8.07;3.95;;;16.60;97.20;;;;;;1721460;28;20212;-74
2023/05/17 08:08:37;;;;;;;9.52;4.10;;;16.70;97.20;;;;;;1721045;28;20628;-74
2023/05/17 08:09:28;;;;;;;8.87;4.67;;;16.70;97.20;;;;;;1721152;28;20205;-73
2023/05/17 08:10:20;;;;;;;9.23;3.90;;;16.60;97.20;;;;;;1721179;28;20201;-74
2023/05/17 08:11:12;;;;;;;4.57;3.60;;;16.60;97.20;;;;;;1721390;28;20255;-74
2023/05/17 08:12:03;;;;;;;9.32;3.42;;;16.60;97.20;;;;;;1721537;28;20205;-74
2023/05/17 08:12:55;;;;;;;12.63;3.85;;;16.60;97.20;;;;;;1721304;28;20197;-73
2023/05/17 08:13:46;;;;;;;6.85;3.03;;;16.70;97.20;;;;;;1718324;28;20200;-73
2023/05/17 08:14:39;;;;;;;11.20;4.37;;;16.80;97.20;;;;;;1721241;28;20197;-73
2023/05/17 08:15:29;;;;;;;7.97;3.90;;;16.90;97.20;;;;;;1720921;28;20205;-73
2023/05/17 08:16:21;;;;;;;5.20;3.20;;;17.00;97.20;;;;;;1721341;28;20201;-73
2023/05/17 08:17:13;;;;;;;16.58;4.65;;;17.10;97.20;;;;;;1721238;28;20559;-74
2023/05/17 08:18:04;;;;;;;29.38;5.70;;;17.20;97.20;;;;;;1721065;28;20216;-74
2023/05/17 08:18:56;;;;;;;11.23;3.60;;;17.30;97.20;;;;;;1721238;28;20208;-73
2023/05/17 08:19:47;;;;;;;10.93;4.70;;;17.50;97.20;;;;;;1721295;28;20687;-73
2023/05/17 08:20:38;;;;;;;5.17;3.50;;;17.60;97.20;;;;;;1721009;28;20635;-74
2023/05/17 08:21:30;;;;;;;11.88;4.18;;;17.70;97.20;;;;;;1720975;28;20634;-73
2023/05/17 08:22:22;;;;;;;9.73;3.95;;;17.90;97.20;;;;;;1721190;28;20267;-73
2023/05/17 08:23:13;;;;;;;9.57;4.43;;;18.00;97.20;;;;;;1718676;28;20603;-73
2023/05/17 08:24:05;;;;;;;8.80;3.50;;;18.00;97.20;;;;;;1721026;28;20602;-73
2023/05/17 08:24:57;;;;;;;13.98;4.20;;;18.00;97.20;;;;;;1721129;28;20582;-73
2023/05/17 08:25:48;;;;;;;6.53;3.65;;;18.00;97.20;;;;;;1720956;28;20213;-74
2023/05/17 08:26:40;;;;;;;15.50;4.17;;;18.00;97.20;;;;;;1721145;28;20208;-74
2023/05/17 08:27:31;;;;;;;12.68;4.03;;;18.00;97.20;;;;;;1720918;28;20217;-73
2023/05/17 08:28:23;;;;;;;10.80;3.80;;;17.90;97.20;;;;;;1721193;28;20205;-74
2023/05/17 08:29:14;;;;;;;22.17;5.00;;;17.90;97.20;;;;;;1721290;28;20205;-74
2023/05/17 08:30:07;;;;;;;7.27;3.50;;;17.80;97.20;;;;;;1721287;28;20205;-73
2023/05/17 08:30:57;;;;;;;7.05;3.20;;;17.80;97.20;;;;;;1721179;28;20251;-71
2023/05/17 08:31:50;;;;;;;9.23;4.20;;;17.70;97.20;;;;;;1721131;28;20217;-73
2023/05/17 08:32:41;;;;;;;9.25;3.28;;;17.70;97.20;;;;;;1721092;28;20212;-73
2023/05/17 08:33:33;;;;;;;15.90;4.10;;;17.70;97.20;;;;;;1720068;28;20284;-73
2023/05/17 08:34:23;;;;;;;8.90;4.30;;;17.70;97.20;;;;;;1721261;28;20944;-73
2023/05/17 08:35:15;;;;;;;22.57;4.23;;;17.80;97.20;;;;;;1721142;28;20700;-73
2023/05/17 08:36:07;;;;;;;6.05;3.60;;;17.70;97.20;;;;;;1721275;28;20681;-73
2023/05/17 08:37:01;;;;;;;9.75;3.78;;;17.80;97.20;;;;;;1721226;28;20201;-74
2023/05/17 08:37:51;;;;;;;8.57;3.30;;;17.80;97.20;;;;;;1721282;28;20284;-73
2023/05/17 08:38:43;;;;;;;12.43;3.93;;;17.80;97.20;;;;;;1720946;28;20204;-74
2023/05/17 08:39:35;;;;;;;7.70;3.70;;;17.80;97.20;;;;;;1721069;28;20205;-72
2023/05/17 08:40:27;;;;;;;9.15;3.70;;;17.90;97.20;;;;;;1720803;28;20255;-72
2023/05/17 08:41:19;;;;;;;11.82;4.50;;;18.00;97.20;;;;;;1720782;28;20257;-73
2023/05/17 08:42:11;;;;;;;8.13;3.42;;;18.00;97.20;;;;;;1720880;28;20271;-74
2023/05/17 08:43:02;;;;;;;12.05;3.95;;;18.10;97.20;;;;;;1720309;28;20201;-73
2023/05/17 08:43:55;;;;;;;17.42;4.78;;;18.20;97.20;;;;;;1718586;28;20189;-74
2023/05/17 08:44:46;;;;;;;10.85;4.30;;;18.20;97.20;;;;;;1720307;28;20674;-74
2023/05/17 08:45:39;;;;;;;13.02;4.40;;;18.30;97.20;;;;;;1720766;28;20606;-72
2023/05/17 08:46:32;;;;;;;9.63;4.32;;;18.30;97.20;;;;;;1720819;28;20193;-73
2023/05/17 08:47:28;;;;;;;12.48;4.20;;;18.30;97.20;;;;;;1720235;28;20284;-73
2023/05/17 08:48:19;;;;;;;19.50;4.93;;;18.30;97.20;;;;;;1720843;28;20196;-73
2023/05/17 08:49:14;;;;;;;11.93;4.40;;;18.30;97.20;;;;;;1720818;28;20227;-72
2023/05/17 08:50:06;;;;;;;16.75;4.22;;;18.30;97.20;;;;;;1720678;28;20201;-73
2023/05/17 08:50:58;;;;;;;13.82;4.15;;;18.30;97.20;;;;;;1720603;28;20308;-73
2023/05/17 08:51:52;;;;;;;12.00;4.22;;;18.20;97.20;;;;;;1720566;28;20197;-73
2023/05/17 08:52:46;;;;;;;8.82;3.75;;;18.20;97.20;;;;;;1720739;28;20201;-73
2023/05/17 08:53:37;;;;;;;12.02;4.07;;;18.20;97.20;;;;;;1717810;28;20201;-73
2023/05/17 08:54:29;;;;;;;16.60;4.15;;;18.20;97.20;;;;;;1720879;28;20648;-72
2023/05/17 08:55:19;;;;;;;12.20;4.22;;;18.20;97.20;;;;;;1720751;28;20251;-73
2023/05/17 08:56:14;;;;;;;9.67;3.97;;;18.30;97.20;;;;;;1720980;28;20205;-72
2023/05/17 08:57:06;;;;;;;10.63;4.00;;;18.30;97.20;;;;;;1720678;28;20638;-72
2023/05/17 08:57:57;;;;;;;12.88;3.88;;;18.40;97.20;;;;;;1720740;28;20198;-73
2023/05/17 08:58:51;;;;;;;8.23;3.65;;;18.50;97.20;;;;;;1720784;28;20216;-72
2023/05/17 08:59:45;;;;;;;6.75;3.92;;;18.50;97.20;;;;;;1720821;28;20207;-73
2023/05/17 09:00:36;;;;;;;9.25;3.90;;;18.50;97.20;;;;;;1720722;28;20517;-72
2023/05/17 09:01:28;;;;;;;10.35;4.03;;;18.50;97.20;;;;;;1720667;28;20260;-73
2023/05/17 09:02:20;;;;;;;18.30;4.18;;;18.50;97.20;;;;;;1719512;28;20204;-73
2023/05/17 09:03:16;;;;;;;11.10;4.50;;;18.50;97.20;;;;;;1720116;28;20580;-73
2023/05/17 09:04:08;;;;;;;10.43;3.90;;;18.40;97.20;;;;;;1721071;28;20205;-73
2023/05/17 09:05:00;;;;;;;6.85;3.30;;;18.40;97.20;;;;;;1720464;28;20280;-74
2023/05/17 09:05:51;;;;;;;19.27;4.88;;;18.30;97.20;;;;;;1720961;28;20205;-73
2023/05/17 09:06:43;;;;;;;10.38;5.60;;;18.30;97.20;;;;;;1721033;28;20570;-72
2023/05/17 09:07:34;;;;;;;11.05;4.82;;;18.30;97.20;;;;;;1720937;28;20215;-72
2023/05/17 09:08:28;;;;;;;9.13;4.50;;;18.40;97.20;;;;;;1720998;28;20204;-74
2023/05/17 09:09:20;;;;;;;8.68;3.92;;;18.50;97.20;;;;;;1720956;28;21004;-73
2023/05/17 09:10:12;;;;;;;5.22;4.18;;;18.60;97.20;;;;;;1720914;28;20868;-73
2023/05/17 09:11:03;;;;;;;5.15;3.50;;;18.70;97.20;;;;;;1720999;28;20242;-72
2023/05/17 09:11:55;;;;;;;12.00;4.90;;;18.70;97.20;;;;;;1720998;28;20205;-72
2023/05/17 09:12:46;;;;;;;7.75;4.03;;;18.80;97.20;;;;;;1720958;28;20677;-72
2023/05/17 09:13:38;;;;;;;12.63;5.20;;;18.80;97.20;;;;;;1720140;28;20212;-73
2023/05/17 09:14:33;;;;;;;13.35;4.80;;;18.90;97.20;;;;;;1720956;28;20212;-73
2023/05/17 09:15:25;;;;;;;5.95;3.92;;;18.90;97.20;;;;;;1720795;28;20236;-73
2023/05/17 09:16:20;;;;;;;9.40;4.43;;;19.00;97.20;;;;;;1720837;28;20685;-72
2023/05/17 09:17:14;;;;;;;11.10;3.78;;;19.10;97.20;;;;;;1720880;28;20201;-72
2023/05/17 09:18:06;;;;;;;9.48;3.72;;;19.20;97.20;;;;;;1720844;28;20240;-72
2023/05/17 09:18:58;;;;;;;6.88;3.88;;;19.20;97.20;;;;;;1720915;28;20279;-72
2023/05/17 09:19:50;;;;;;;5.10;3.55;;;19.20;97.20;;;;;;1720823;28;20205;-73
2023/05/17 09:20:42;;;;;;;5.13;3.55;;;19.20;97.20;;;;;;1720850;28;20740;-73
2023/05/17 09:21:34;;;;;;;6.43;3.58;;;19.20;97.20;;;;;;1720556;28;20232;-72
2023/05/17 09:22:25;;;;;;;7.05;4.13;;;19.10;97.20;;;;;;1720935;28;20686;-73
2023/05/17 09:23:20;;;;;;;6.75;3.90;;;19.10;97.20;;;;;;1720021;28;20205;-73
2023/05/17 09:24:13;;;;;;;7.68;4.18;;;19.10;97.20;;;;;;1720941;28;20288;-72
2023/05/17 09:25:04;;;;;;;9.20;3.63;;;19.00;97.20;;;;;;1720749;28;20201;-73
2023/05/17 09:26:04;;;;;;;7.93;4.07;;;19.00;97.20;;;;;;1720818;28;20614;-72
2023/05/17 09:27:01;;;;;;;10.85;4.10;;;19.00;97.20;;;;;;1720793;28;20285;-72
2023/05/17 09:27:53;;;;;;;7.13;4.10;;;19.00;97.20;;;;;;1720894;28;20201;-73
2023/05/17 09:28:44;;;;;;;9.65;4.70;;;19.10;97.20;;;;;;1720736;28;20680;-74